N132SU KOPF-KLAL
Flight info
| Callsign | N132SU |
|---|---|
| Flight time | N/A |
| Altitude | 16500 |
| Route | DCT |
| Aircraft | SU27/M-VGD/C |
Departure
| Time | N/A |
|---|---|
| Airport | Miami-Opa Locka Executive Airport (KOPF) |
Arrival
| Time | 2026-04-26 21:44 |
|---|---|
| Airport | Lakeland Linder International Airport (KLAL) |
| Time | Latitude | Longitude | Altitude | Speed | Heading |
|---|---|---|---|---|---|
| 2026-04-26 21:22 | 26.82415 | -81.43013 | 16860 ft | 576 kts | 313° |
| 2026-04-26 21:22 | 26.85181 | -81.46250 | 16995 ft | 575 kts | 313° |
| 2026-04-26 21:23 | 26.90761 | -81.52783 | 16381 ft | 586 kts | 313° |
| 2026-04-26 21:23 | 26.93594 | -81.56103 | 16002 ft | 590 kts | 313° |
| 2026-04-26 21:23 | 26.96435 | -81.59434 | 15552 ft | 581 kts | 313° |
| 2026-04-26 21:23 | 26.99078 | -81.62430 | 14644 ft | 503 kts | 315° |
| 2026-04-26 21:24 | 27.01458 | -81.64962 | 13981 ft | 443 kts | 317° |
| 2026-04-26 21:24 | 27.03660 | -81.67153 | 13090 ft | 406 kts | 319° |
| 2026-04-26 21:24 | 27.05721 | -81.69152 | 12230 ft | 378 kts | 319° |
| 2026-04-26 21:24 | 27.07646 | -81.71015 | 11423 ft | 353 kts | 319° |
| 2026-04-26 21:25 | 27.09444 | -81.72749 | 10655 ft | 331 kts | 319° |
| 2026-04-26 21:25 | 27.11123 | -81.74362 | 10313 ft | 298 kts | 319° |
| 2026-04-26 21:25 | 27.12604 | -81.75777 | 10277 ft | 263 kts | 319° |
| 2026-04-26 21:25 | 27.13965 | -81.76955 | 10165 ft | 233 kts | 326° |
| 2026-04-26 21:26 | 27.15325 | -81.77845 | 9960 ft | 246 kts | 329° |
| 2026-04-26 21:26 | 27.17100 | -81.78908 | 8823 ft | 325 kts | 330° |
| 2026-04-26 21:26 | 27.19120 | -81.80103 | 7821 ft | 326 kts | 330° |
| 2026-04-26 21:26 | 27.21120 | -81.81264 | 6938 ft | 320 kts | 332° |
| 2026-04-26 21:27 | 27.23094 | -81.82381 | 6131 ft | 315 kts | 331° |
| 2026-04-26 21:27 | 27.25028 | -81.83479 | 5320 ft | 309 kts | 332° |
| 2026-04-26 21:27 | 27.26923 | -81.84551 | 4729 ft | 297 kts | 331° |
| 2026-04-26 21:27 | 27.28712 | -81.85569 | 4343 ft | 280 kts | 330° |
| 2026-04-26 21:28 | 27.30362 | -81.86517 | 4185 ft | 253 kts | 331° |
| 2026-04-26 21:28 | 27.31849 | -81.87368 | 4068 ft | 227 kts | 331° |
| 2026-04-26 21:28 | 27.33211 | -81.88125 | 3934 ft | 211 kts | 330° |
| 2026-04-26 21:28 | 27.34684 | -81.88953 | 4129 ft | 285 kts | 332° |
| 2026-04-26 21:29 | 27.36548 | -81.90000 | 4078 ft | 295 kts | 332° |
| 2026-04-26 21:29 | 27.38322 | -81.90980 | 4078 ft | 274 kts | 333° |
| 2026-04-26 21:29 | 27.40009 | -81.91836 | 4052 ft | 257 kts | 334° |
| 2026-04-26 21:29 | 27.41611 | -81.92639 | 3922 ft | 249 kts | 334° |
| 2026-04-26 21:30 | 27.43170 | -81.93410 | 3732 ft | 240 kts | 334° |
| 2026-04-26 21:30 | 27.44689 | -81.94165 | 3590 ft | 241 kts | 334° |
| 2026-04-26 21:30 | 27.46253 | -81.94938 | 3606 ft | 250 kts | 334° |
| 2026-04-26 21:30 | 27.47885 | -81.95735 | 3665 ft | 263 kts | 334° |
| 2026-04-26 21:31 | 27.49603 | -81.96570 | 3716 ft | 275 kts | 334° |
| 2026-04-26 21:31 | 27.51379 | -81.97420 | 3735 ft | 272 kts | 334° |
| 2026-04-26 21:31 | 27.53071 | -81.98228 | 3684 ft | 257 kts | 334° |
| 2026-04-26 21:31 | 27.54712 | -81.98911 | 3614 ft | 245 kts | 338° |
| 2026-04-26 21:32 | 27.56304 | -81.99466 | 3562 ft | 248 kts | 342° |
| 2026-04-26 21:32 | 27.58040 | -81.99899 | 3551 ft | 255 kts | 347° |
| 2026-04-26 21:32 | 27.59755 | -82.00226 | 3498 ft | 245 kts | 347° |
| 2026-04-26 21:32 | 27.61376 | -82.00539 | 3514 ft | 229 kts | 347° |
| 2026-04-26 21:33 | 27.62899 | -82.00828 | 3548 ft | 214 kts | 348° |
| 2026-04-26 21:33 | 27.64324 | -82.01092 | 3561 ft | 202 kts | 347° |
| 2026-04-26 21:33 | 27.65826 | -82.01161 | 3505 ft | 254 kts | 356° |
| 2026-04-26 21:33 | 27.67758 | -82.01217 | 3501 ft | 285 kts | 356° |
| 2026-04-26 21:34 | 27.69647 | -82.01266 | 3551 ft | 259 kts | 355° |
| 2026-04-26 21:34 | 27.71405 | -82.01297 | 3544 ft | 248 kts | 356° |
| 2026-04-26 21:34 | 27.73117 | -82.01314 | 3540 ft | 247 kts | 356° |
| 2026-04-26 21:34 | 27.74859 | -82.01313 | 3561 ft | 253 kts | 356° |
| 2026-04-26 21:35 | 27.76643 | -82.01305 | 3616 ft | 259 kts | 358° |
| 2026-04-26 21:35 | 27.78456 | -82.01242 | 3725 ft | 264 kts | 359° |
| 2026-04-26 21:35 | 27.80324 | -82.01219 | 3538 ft | 273 kts | 357° |
| 2026-04-26 21:35 | 27.82263 | -82.01248 | 3401 ft | 281 kts | 357° |
| 2026-04-26 21:36 | 27.84154 | -82.01268 | 3281 ft | 263 kts | 357° |
| 2026-04-26 21:36 | 27.85917 | -82.01293 | 3208 ft | 244 kts | 356° |
| 2026-04-26 21:36 | 27.87559 | -82.01316 | 3121 ft | 228 kts | 355° |
| 2026-04-26 21:36 | 27.89096 | -82.01312 | 3078 ft | 213 kts | 356° |
| 2026-04-26 21:37 | 27.90584 | -82.01295 | 2954 ft | 216 kts | 356° |
| 2026-04-26 21:37 | 27.92102 | -82.01286 | 2894 ft | 225 kts | 356° |
| 2026-04-26 21:37 | 27.93693 | -82.01254 | 2930 ft | 230 kts | 19° |
| 2026-04-26 21:37 | 27.94123 | -81.99804 | 2873 ft | 238 kts | 135° |
| 2026-04-26 21:38 | 27.92859 | -81.99984 | 3161 ft | 210 kts | 266° |
| 2026-04-26 21:38 | 27.93923 | -82.00890 | 2870 ft | 245 kts | 0° |
| 2026-04-26 21:38 | 27.95071 | -82.00040 | 3062 ft | 214 kts | 114° |
| 2026-04-26 21:38 | 27.93763 | -81.99649 | 2831 ft | 242 kts | 216° |
| 2026-04-26 21:39 | 27.93757 | -82.01046 | 2934 ft | 225 kts | 358° |
| 2026-04-26 21:39 | 27.94143 | -81.99870 | 2751 ft | 222 kts | 167° |
| 2026-04-26 21:39 | 27.93625 | -82.00570 | 3050 ft | 188 kts | 353° |
| 2026-04-26 21:39 | 27.94993 | -81.99989 | 3524 ft | 252 kts | 92° |
| 2026-04-26 21:40 | 27.93709 | -81.99496 | 3309 ft | 262 kts | 240° |
| 2026-04-26 21:40 | 27.94291 | -82.00852 | 2963 ft | 239 kts | 12° |
| 2026-04-26 21:40 | 27.94580 | -81.99589 | 2966 ft | 198 kts | 178° |
| 2026-04-26 21:40 | 27.94687 | -82.00357 | 2851 ft | 260 kts | 343° |
| 2026-04-26 21:41 | 27.96543 | -82.00916 | 2741 ft | 268 kts | 343° |
| 2026-04-26 21:41 | 27.97652 | -82.00105 | 2954 ft | 249 kts | 86° |
| 2026-04-26 21:41 | 27.97587 | -81.98208 | 2760 ft | 237 kts | 94° |
| 2026-04-26 21:41 | 27.97468 | -81.96457 | 2691 ft | 214 kts | 93° |
| 2026-04-26 21:42 | 27.97357 | -81.94797 | 2493 ft | 205 kts | 93° |
| 2026-04-26 21:42 | 27.97299 | -81.93289 | 2550 ft | 179 kts | 82° |
| 2026-04-26 21:42 | 27.98281 | -81.92701 | 1965 ft | 275 kts | 330° |
| 2026-04-26 21:42 | 27.99202 | -81.94545 | 1744 ft | 335 kts | 259° |
| 2026-04-26 21:43 | 27.99042 | -81.96613 | 1489 ft | 184 kts | 272° |
| 2026-04-26 21:43 | 27.98961 | -81.98002 | 1047 ft | 173 kts | 267° |
| 2026-04-26 21:43 | 27.98925 | -81.99332 | 633 ft | 166 kts | 270° |
| 2026-04-26 21:43 | 27.98919 | -82.00651 | 206 ft | 165 kts | 270° |
| 2026-04-26 21:44 | 27.98924 | -82.01840 | 147 ft | 133 kts | 270° |
| 2026-04-26 21:44 | 27.98926 | -82.02694 | 140 ft | 84 kts | 270° |
| 2026-04-26 21:44 | 27.98926 | -82.03102 | 138 ft | 26 kts | 270° |
| 2026-04-26 21:44 | 27.98926 | -82.03243 | 140 ft | 16 kts | 270° |
| 2026-04-26 21:45 | 27.98869 | -82.03345 | 140 ft | 17 kts | 187° |
| 2026-04-26 21:45 | 27.98817 | -82.03287 | 139 ft | 0 kts | 90° |
| 2026-04-26 21:46 | 27.98817 | -82.03272 | 139 ft | 7 kts | 90° |
| 2026-04-26 21:46 | 27.98815 | -82.03157 | 140 ft | 16 kts | 94° |
| 2026-04-26 21:47 | 27.98814 | -82.03042 | 140 ft | 14 kts | 91° |
| 2026-04-26 21:47 | 27.98814 | -82.02936 | 138 ft | 16 kts | 90° |
| 2026-04-26 21:47 | 27.98818 | -82.02776 | 137 ft | 21 kts | 87° |
| 2026-04-26 21:47 | 27.98818 | -82.02625 | 139 ft | 18 kts | 90° |
| 2026-04-26 21:48 | 27.98816 | -82.02494 | 139 ft | 16 kts | 91° |
| 2026-04-26 21:48 | 27.98815 | -82.02370 | 140 ft | 16 kts | 89° |
| 2026-04-26 21:48 | 27.98751 | -82.02294 | 140 ft | 18 kts | 147° |
| 2026-04-26 21:48 | 27.98732 | -82.02171 | 143 ft | 15 kts | 89° |
| 2026-04-26 21:49 | 27.98733 | -82.02070 | 145 ft | 13 kts | 90° |
| 2026-04-26 21:49 | 27.98733 | -82.01936 | 145 ft | 18 kts | 91° |
| 2026-04-26 21:49 | 27.98732 | -82.01794 | 145 ft | 20 kts | 90° |
| 2026-04-26 21:49 | 27.98724 | -82.01660 | 148 ft | 9 kts | 132° |
| 2026-04-26 21:50 | 27.98674 | -82.01701 | 146 ft | 20 kts | 226° |
| 2026-04-26 21:50 | 27.98622 | -82.01737 | 146 ft | 1 kts | 146° |
| 2026-04-26 21:50 | 27.98632 | -82.01687 | 146 ft | 7 kts | 55° |
| 2026-04-26 21:50 | 27.98663 | -82.01658 | 147 ft | 4 kts | 14° |
| 2026-04-26 21:51 | 27.98666 | -82.01661 | 147 ft | 0 kts | 314° |
| 2026-04-26 21:51 | 27.98667 | -82.01661 | 147 ft | 0 kts | 315° |
| 2026-04-26 21:52 | 27.98667 | -82.01662 | 147 ft | 0 kts | 317° |
| 2026-04-26 21:55 | 27.98662 | -82.01656 | 147 ft | 0 kts | 317° |